Time;durP1;ratioP1;P1;durP2;ratioP2;P2;SDS_P1;SDS_P2;PMS_P1;PMS_P2;Temp;Humidity;BMP_temperature;BMP_pressure;BME280_temperature;BME280_humidity;BME280_pressure;Samples;Min_cycle;Max_cycle;Signal;HPM_P1;HPM_P2
2023/03/16 00:01:41;;;;;;;25.30;15.32;;;;;;;11.45;58.62;98767.53;5075228;28;20041;-69
2023/03/16 00:04:07;;;;;;;24.42;16.55;;;;;;;11.52;57.72;98763.94;5076720;28;20045;-65
2023/03/16 00:06:32;;;;;;;25.17;15.95;;;;;;;11.56;58.19;98767.03;5074255;28;20049;-66
2023/03/16 00:08:58;;;;;;;23.00;15.02;;;;;;;11.60;58.85;98762.97;5076670;28;20040;-70
2023/03/16 00:11:27;;;;;;;26.25;16.88;;;;;;;11.60;58.50;98754.19;5076591;28;20258;-69
2023/03/16 00:13:53;;;;;;;28.20;17.90;;;;;;;11.57;58.27;98757.25;5076706;28;20036;-65
2023/03/16 00:16:18;;;;;;;22.92;16.90;;;;;;;11.53;59.09;98754.16;5073962;28;20070;-69
2023/03/16 00:18:46;;;;;;;25.70;16.15;;;;;;;11.52;59.08;98765.75;5075278;28;20044;-65
2023/03/16 00:21:13;;;;;;;23.40;15.10;;;;;;;11.52;58.95;98761.28;5075080;28;20294;-65
2023/03/16 00:23:41;;;;;;;24.58;15.65;;;;;;;11.46;59.27;98754.09;5075809;28;20039;-65
2023/03/16 00:26:07;;;;;;;24.38;14.52;;;;;;;11.51;58.95;98754.34;5077803;28;20237;-70
2023/03/16 00:28:34;;;;;;;18.88;13.38;;;;;;;11.52;59.64;98758.63;5076070;28;20264;-70
2023/03/16 00:31:02;;;;;;;19.60;12.90;;;;;;;11.49;59.40;98756.38;5074064;28;20028;-70
2023/03/16 00:33:28;;;;;;;19.20;11.80;;;;;;;11.50;59.52;98759.84;5071980;28;20040;-69
2023/03/16 00:36:01;;;;;;;20.02;11.45;;;;;;;11.53;60.29;98756.81;5074924;28;20086;-65
2023/03/16 00:38:28;;;;;;;18.08;9.50;;;;;;;11.53;61.20;98762.09;5075428;28;20036;-69
2023/03/16 00:40:53;;;;;;;11.75;8.43;;;;;;;11.41;61.57;98766.25;5074868;28;20340;-65
2023/03/16 00:43:19;;;;;;;11.52;8.40;;;;;;;11.43;62.34;98769.53;5074477;28;20032;-65
2023/03/16 00:45:45;;;;;;;13.48;8.93;;;;;;;11.39;63.57;98763.78;5074524;28;20041;-66
2023/03/16 00:48:10;;;;;;;12.30;7.60;;;;;;;11.34;63.96;98763.53;5078246;28;20040;-69
2023/03/16 00:50:37;;;;;;;14.43;7.80;;;;;;;11.29;64.83;98765.94;5074274;28;20032;-65
2023/03/16 00:53:02;;;;;;;11.45;7.32;;;;;;;11.31;65.53;98766.59;5077386;28;20032;-69
2023/03/16 00:55:28;;;;;;;11.40;6.80;;;;;;;11.33;65.01;98769.88;5076003;28;20036;-65
2023/03/16 00:57:53;;;;;;;8.95;7.10;;;;;;;11.31;65.72;98773.72;5074791;28;20068;-70
2023/03/16 01:00:20;;;;;;;11.73;8.02;;;;;;;11.35;65.71;98773.13;5075504;28;20489;-66
2023/03/16 01:02:46;;;;;;;11.23;7.65;;;;;;;11.27;66.37;98778.56;5077444;28;20059;-70
2023/03/16 01:05:12;;;;;;;9.02;7.18;;;;;;;11.31;65.95;98773.72;5075970;28;20036;-69
2023/03/16 01:07:39;;;;;;;10.60;7.47;;;;;;;11.28;66.68;98779.38;5073457;28;20083;-70
2023/03/16 01:10:06;;;;;;;11.55;7.18;;;;;;;11.27;66.53;98775.91;5074379;28;20160;-70
2023/03/16 01:12:32;;;;;;;10.60;7.30;;;;;;;11.29;66.50;98773.91;5074734;28;20041;-70
2023/03/16 01:14:58;;;;;;;11.32;7.68;;;;;;;11.28;66.81;98774.91;5074382;28;20276;-70
2023/03/16 01:17:23;;;;;;;10.85;7.38;;;;;;;11.23;67.63;98779.97;5073188;28;20063;-65
2023/03/16 01:19:50;;;;;;;10.23;6.95;;;;;;;11.25;67.32;98782.41;5074112;28;20078;-69
2023/03/16 01:22:16;;;;;;;11.85;7.28;;;;;;;11.29;67.54;98781.03;5075217;28;20110;-64
2023/03/16 01:24:45;;;;;;;8.77;6.25;;;;;;;11.30;67.87;98782.66;5074605;28;20265;-65
2023/03/16 01:27:12;;;;;;;9.20;6.47;;;;;;;11.25;67.89;98785.88;5071125;28;20024;-70
2023/03/16 01:29:38;;;;;;;11.90;6.63;;;;;;;11.26;68.62;98787.53;5076936;28;20074;-69
2023/03/16 01:32:05;;;;;;;8.30;6.30;;;;;;;11.14;69.79;98789.88;5075300;28;20039;-66
2023/03/16 01:34:31;;;;;;;11.38;6.45;;;;;;;11.06;70.01;98791.81;5077741;28;20040;-70
2023/03/16 01:36:56;;;;;;;7.90;5.75;;;;;;;11.20;70.39;98790.94;5076870;28;20326;-70
2023/03/16 01:39:22;;;;;;;7.75;6.00;;;;;;;11.11;70.08;98792.06;5076430;28;20050;-65
2023/03/16 01:41:48;;;;;;;10.13;6.57;;;;;;;11.06;70.48;98794.47;5077287;28;20110;-67
2023/03/16 01:44:51;;;;;;;8.10;5.57;;;;;;;10.97;70.02;98788.47;5077624;28;20044;-63
2023/03/16 01:47:17;;;;;;;6.63;4.95;;;;;;;10.83;70.46;98791.97;5077434;28;20032;-63
2023/03/16 01:49:47;;;;;;;6.93;5.13;;;;;;;10.79;71.33;98793.34;5076980;28;20373;-67
2023/03/16 01:52:18;;;;;;;8.88;5.05;;;;;;;10.80;71.14;98798.47;5076586;28;20154;-67
2023/03/16 01:54:49;;;;;;;6.38;4.40;;;;;;;10.76;71.17;98807.78;5077625;28;20043;-67
2023/03/16 01:57:29;;;;;;;6.68;4.45;;;;;;;10.62;70.08;98800.69;5077459;28;20055;-63
2023/03/16 01:59:57;;;;;;;5.35;3.45;;;;;;;10.64;69.21;98803.16;5078144;28;20265;-67
2023/03/16 02:02:28;;;;;;;5.68;3.53;;;;;;;10.59;69.48;98809.00;5081620;28;20043;-63
2023/03/16 02:05:12;;;;;;;5.75;3.33;;;;;;;10.60;69.49;98802.72;5082075;28;20361;-63
2023/03/16 02:07:47;;;;;;;4.05;2.83;;;;;;;10.51;69.05;98809.94;5082347;28;20093;-67
2023/03/16 02:10:15;;;;;;;4.82;2.92;;;;;;;10.39;68.68;98816.66;5081500;28;20059;-62
2023/03/16 02:12:42;;;;;;;3.33;2.05;;;;;;;10.26;69.10;98821.78;5081516;28;20064;-67
2023/03/16 02:15:08;;;;;;;3.53;2.25;;;;;;;10.23;68.85;98838.00;5081274;28;20047;-67
2023/03/16 02:17:35;;;;;;;3.80;2.85;;;;;;;10.15;68.78;98830.97;5080950;28;20062;-63
2023/03/16 02:20:12;;;;;;;4.85;2.30;;;;;;;10.06;68.23;98829.41;5081810;28;20256;-63
2023/03/16 02:22:42;;;;;;;2.67;2.33;;;;;;;10.11;68.40;98842.06;5081366;28;20058;-64
2023/03/16 02:25:09;;;;;;;4.55;2.45;;;;;;;9.95;68.00;98843.06;5081196;28;20044;-66
2023/03/16 02:27:53;;;;;;;3.20;2.50;;;;;;;9.98;67.95;98833.94;5080854;28;20075;-63
2023/03/16 02:30:20;;;;;;;3.65;2.15;;;;;;;9.91;67.61;98842.59;5061830;28;20074;-68
2023/03/16 02:32:48;;;;;;;3.67;2.22;;;;;;;9.84;68.15;98846.16;5064900;28;20048;-70
2023/03/16 02:35:14;;;;;;;4.65;2.33;;;;;;;9.85;67.76;98840.69;5064334;28;20299;-70
2023/03/16 02:37:40;;;;;;;2.88;2.25;;;;;;;9.82;67.53;98848.16;5062008;28;20071;-68
2023/03/16 02:40:27;;;;;;;5.40;2.50;;;;;;;9.80;67.31;98850.97;5072074;28;20302;-65
2023/03/16 02:43:01;;;;;;;4.47;2.35;;;;;;;9.83;66.91;98847.97;5066051;28;20350;-63
2023/03/16 02:45:28;;;;;;;;;;;;;;;9.81;66.49;98854.44;5062437;28;20381;-65
2023/03/16 02:47:53;;;;;;;4.18;2.00;;;;;;;9.70;66.90;98841.63;5064022;28;19999;-70
2023/03/16 02:50:19;;;;;;;4.70;2.50;;;;;;;9.57;66.65;98848.34;5062976;28;20072;-69
2023/03/16 02:52:47;;;;;;;6.63;3.85;;;;;;;9.66;67.12;98850.94;5066718;28;20310;-69
2023/03/16 02:55:13;;;;;;;4.88;2.72;;;;;;;9.63;67.35;98848.63;5062864;28;20051;-66
2023/03/16 02:57:38;;;;;;;4.13;2.25;;;;;;;9.54;67.26;98855.81;5061948;28;20036;-69
2023/03/16 03:00:10;;;;;;;3.88;2.28;;;;;;;9.46;67.44;98869.91;5061490;28;20059;-69
2023/03/16 03:02:35;;;;;;;3.33;2.20;;;;;;;9.51;66.96;98867.56;5060885;28;20064;-70
2023/03/16 03:05:01;;;;;;;3.72;2.00;;;;;;;9.56;66.58;98877.59;5064504;28;20035;-65
2023/03/16 03:07:30;;;;;;;2.47;2.10;;;;;;;9.58;67.46;98876.44;5064735;28;20502;-65
2023/03/16 03:09:56;;;;;;;3.55;1.98;;;;;;;9.65;67.59;98878.34;5060061;28;20075;-65
2023/03/16 03:12:21;;;;;;;3.05;2.00;;;;;;;9.58;67.62;98875.59;5060680;28;20044;-65
2023/03/16 03:14:47;;;;;;;2.75;2.38;;;;;;;9.52;66.92;98885.06;5060853;28;20345;-66
2023/03/16 03:17:13;;;;;;;3.83;2.40;;;;;;;9.53;66.36;98891.16;5064928;28;20060;-69
2023/03/16 03:19:38;;;;;;;4.07;2.30;;;;;;;9.48;65.89;98882.94;5060122;28;20044;-70
2023/03/16 03:22:05;;;;;;;3.65;2.65;;;;;;;9.43;66.22;98890.56;5067676;28;20327;-65
2023/03/16 03:24:32;;;;;;;2.97;2.50;;;;;;;9.41;66.15;98893.41;5063045;28;20041;-65
2023/03/16 03:26:59;;;;;;;3.47;2.58;;;;;;;9.38;66.38;98895.56;5062998;28;20032;-65
2023/03/16 03:29:33;;;;;;;4.00;2.75;;;;;;;9.33;65.83;98893.41;5064540;28;20033;-66
2023/03/16 03:32:03;;;;;;;5.93;2.63;;;;;;;9.34;66.27;98907.44;5066048;28;20163;-65
2023/03/16 03:34:29;;;;;;;3.25;2.60;;;;;;;9.29;66.56;98910.59;5064676;28;20235;-69
2023/03/16 03:36:55;;;;;;;3.42;2.55;;;;;;;9.35;66.24;98914.38;5063978;28;20037;-65
2023/03/16 03:39:20;;;;;;;3.80;2.35;;;;;;;9.38;65.57;98908.78;5067263;28;20203;-64
2023/03/16 03:41:45;;;;;;;2.83;2.30;;;;;;;9.28;65.77;98917.72;5064567;28;20048;-64
2023/03/16 03:44:11;;;;;;;3.80;2.20;;;;;;;9.26;65.75;98921.53;5061531;28;20066;-69
2023/03/16 03:46:36;;;;;;;3.35;2.25;;;;;;;9.21;65.79;98927.31;5064085;28;20051;-65
2023/03/16 03:49:04;;;;;;;4.75;2.22;;;;;;;9.17;65.81;98928.66;5063821;28;20043;-69
2023/03/16 03:51:30;;;;;;;3.05;2.30;;;;;;;9.10;65.87;98919.78;5063750;28;20076;-69
2023/03/16 03:53:57;;;;;;;2.75;1.80;;;;;;;9.02;65.76;98914.53;5061496;28;20096;-69
2023/03/16 03:56:22;;;;;;;6.50;2.53;;;;;;;9.06;65.93;98923.78;5065488;28;20037;-65
2023/03/16 03:58:48;;;;;;;4.82;2.47;;;;;;;8.94;66.35;98915.41;5063010;28;20043;-69
2023/03/16 04:01:14;;;;;;;3.20;2.10;;;;;;;8.89;67.07;98930.13;5062150;28;20291;-69
2023/03/16 04:03:39;;;;;;;3.40;2.30;;;;;;;8.82;67.75;98932.63;5060742;28;20090;-65
2023/03/16 04:06:07;;;;;;;2.88;2.30;;;;;;;8.75;67.34;98936.94;5063989;28;20310;-65
2023/03/16 04:08:33;;;;;;;3.30;2.67;;;;;;;8.76;67.95;98935.94;5062457;28;20123;-70
2023/03/16 04:10:58;;;;;;;3.70;2.22;;;;;;;8.74;67.37;98937.94;5063899;28;20063;-69
2023/03/16 04:13:24;;;;;;;2.72;1.95;;;;;;;8.78;67.35;98955.06;5062870;28;20040;-69
2023/03/16 04:15:55;;;;;;;2.10;1.90;;;;;;;8.77;67.53;98949.97;5063592;28;20044;-64
2023/03/16 04:18:21;;;;;;;4.55;2.25;;;;;;;8.70;67.01;98947.19;5065351;28;20035;-65
2023/03/16 04:20:47;;;;;;;3.67;2.63;;;;;;;8.71;67.46;98961.19;5062831;28;20040;-69
2023/03/16 04:23:12;;;;;;;2.38;1.90;;;;;;;8.69;67.29;98963.19;5063027;28;20033;-69
2023/03/16 04:25:38;;;;;;;3.42;2.40;;;;;;;8.66;66.99;98969.63;5063296;28;20029;-69
2023/03/16 04:28:04;;;;;;;3.90;2.35;;;;;;;8.69;66.96;98979.84;5059963;28;20065;-69
2023/03/16 04:30:29;;;;;;;2.60;2.20;;;;;;;8.69;66.70;98985.13;5069585;28;20263;-64
2023/03/16 04:32:55;;;;;;;2.38;1.80;;;;;;;8.74;66.95;98988.06;5060284;28;20304;-65
2023/03/16 04:35:21;;;;;;;4.07;2.20;;;;;;;8.70;66.58;98989.41;5059778;28;20025;-69
2023/03/16 04:37:46;;;;;;;3.05;1.60;;;;;;;8.71;66.13;98984.94;5064594;28;20032;-65
2023/03/16 04:40:15;;;;;;;5.38;2.08;;;;;;;8.74;65.98;98992.53;5062322;28;20041;-70
2023/03/16 04:42:41;;;;;;;3.40;2.00;;;;;;;8.72;66.11;98999.78;5060303;28;20044;-65
2023/03/16 04:45:07;;;;;;;5.57;2.92;;;;;;;8.70;65.92;99005.25;5059841;28;20034;-69
2023/03/16 04:47:33;;;;;;;1.60;1.50;;;;;;;8.66;65.43;98998.66;5063397;28;20078;-69
2023/03/16 04:50:01;;;;;;;4.07;2.35;;;;;;;8.55;65.45;99005.09;5059791;28;20253;-69
2023/03/16 04:52:27;;;;;;;4.38;2.00;;;;;;;8.53;65.90;99011.53;5062180;28;20073;-65
2023/03/16 04:54:53;;;;;;;3.72;2.05;;;;;;;8.51;65.94;99013.50;5063831;28;20064;-69
2023/03/16 04:57:19;;;;;;;3.70;2.25;;;;;;;8.52;65.65;99013.34;5062129;28;20068;-64
2023/03/16 04:59:44;;;;;;;3.05;1.73;;;;;;;8.56;64.85;99017.31;5061459;28;20044;-65
2023/03/16 05:02:10;;;;;;;2.75;1.77;;;;;;;8.58;64.92;99020.59;5060067;28;20044;-65
2023/03/16 05:04:36;;;;;;;2.35;1.52;;;;;;;8.56;64.75;99035.78;5059111;28;20032;-69
2023/03/16 05:07:01;;;;;;;3.33;1.98;;;;;;;8.62;64.42;99045.66;5063383;28;20043;-65
2023/03/16 05:09:27;;;;;;;2.55;1.70;;;;;;;8.73;64.56;99041.03;5063671;28;20040;-66
2023/03/16 05:11:52;;;;;;;3.33;2.08;;;;;;;8.62;63.70;99047.47;5056898;28;20040;-65
2023/03/16 05:14:18;;;;;;;2.10;1.70;;;;;;;8.56;63.76;99048.13;5060173;28;20037;-65
2023/03/16 05:16:43;;;;;;;2.20;1.50;;;;;;;8.48;63.70;99051.59;5063572;28;20521;-65
2023/03/16 05:19:08;;;;;;;3.20;1.50;;;;;;;8.43;63.90;99050.47;5063762;28;20052;-69
2023/03/16 05:21:36;;;;;;;3.67;2.17;;;;;;;8.47;64.27;99052.59;5062567;28;20041;-69
2023/03/16 05:24:06;;;;;;;2.13;1.70;;;;;;;8.46;63.61;99063.31;5060627;28;20049;-69
2023/03/16 05:26:32;;;;;;;4.30;2.25;;;;;;;8.40;63.64;99063.97;5060108;28;20365;-65
2023/03/16 05:28:58;;;;;;;2.00;1.55;;;;;;;8.29;63.39;99057.16;5061365;28;20075;-69
2023/03/16 05:31:31;;;;;;;2.08;1.35;;;;;;;8.36;63.30;99067.94;5058480;28;20701;-64
2023/03/16 05:33:56;;;;;;;1.30;1.20;;;;;;;8.35;63.54;99072.38;5060657;28;20033;-69
2023/03/16 05:36:23;;;;;;;2.15;1.10;;;;;;;8.36;63.06;99068.75;5060674;28;20036;-64
2023/03/16 05:38:49;;;;;;;1.38;0.90;;;;;;;8.28;62.82;99066.88;5062491;28;20218;-64
2023/03/16 05:41:17;;;;;;;3.75;1.15;;;;;;;8.06;63.42;99072.78;5062359;28;20028;-65
2023/03/16 05:43:43;;;;;;;1.65;1.30;;;;;;;8.16;63.46;99073.47;5063070;28;20056;-70
2023/03/16 05:46:08;;;;;;;2.42;1.20;;;;;;;8.33;62.44;99071.72;5058382;28;20040;-69
2023/03/16 05:48:34;;;;;;;1.75;1.25;;;;;;;8.23;62.18;99065.72;5061003;28;20044;-69
2023/03/16 05:51:00;;;;;;;2.17;1.00;;;;;;;8.25;62.29;99076.94;5061486;28;20060;-69
2023/03/16 05:53:27;;;;;;;2.10;1.13;;;;;;;8.29;62.05;99073.81;5063378;28;20029;-65
2023/03/16 05:55:53;;;;;;;1.98;1.42;;;;;;;8.27;61.68;99088.97;5061308;28;20116;-64
2023/03/16 05:58:20;;;;;;;6.43;1.40;;;;;;;8.19;61.59;99080.22;5058882;28;20036;-70
2023/03/16 06:00:45;;;;;;;4.20;1.20;;;;;;;8.26;61.47;99091.78;5059282;28;20033;-65
2023/03/16 06:03:11;;;;;;;3.60;1.48;;;;;;;8.28;61.40;99087.97;5059094;28;20552;-69
2023/03/16 06:05:37;;;;;;;3.25;1.30;;;;;;;8.33;61.06;99098.09;5059524;28;20040;-65
2023/03/16 06:08:02;;;;;;;4.80;2.35;;;;;;;8.37;60.92;99095.97;5060859;28;20305;-69
2023/03/16 06:10:28;;;;;;;2.80;1.83;;;;;;;8.38;60.66;99100.25;5062583;28;20147;-64
2023/03/16 06:12:53;;;;;;;2.63;1.45;;;;;;;8.34;60.32;99101.56;5058433;28;20032;-70
2023/03/16 06:15:19;;;;;;;4.15;2.47;;;;;;;8.21;60.83;99104.63;5057889;28;20060;-65
2023/03/16 06:17:44;;;;;;;5.07;3.13;;;;;;;8.20;60.79;99124.06;5061263;28;20079;-69
2023/03/16 06:20:12;;;;;;;7.22;5.88;;;;;;;8.26;60.76;99126.06;5062316;28;20033;-65
2023/03/16 06:22:39;;;;;;;6.03;4.45;;;;;;;8.26;61.26;99126.88;5060427;28;20036;-69
2023/03/16 06:25:05;;;;;;;2.78;1.27;;;;;;;8.38;60.34;99137.19;5058088;28;20238;-69
2023/03/16 06:27:30;;;;;;;3.95;1.25;;;;;;;8.33;60.09;99135.03;5061533;28;20569;-69
2023/03/16 06:29:56;;;;;;;1.48;1.00;;;;;;;8.40;60.34;99136.03;5058284;28;20033;-69
2023/03/16 06:32:21;;;;;;;1.48;0.98;;;;;;;8.36;59.95;99145.25;5057938;28;20039;-69
2023/03/16 06:34:47;;;;;;;2.13;0.90;;;;;;;8.32;59.83;99152.63;5060225;28;20037;-65
2023/03/16 06:37:12;;;;;;;4.25;1.30;;;;;;;8.38;60.42;99147.72;5060483;28;20334;-69
2023/03/16 06:39:38;;;;;;;1.98;0.77;;;;;;;8.39;59.90;99152.03;5061193;28;20048;-69
2023/03/16 06:42:04;;;;;;;2.78;1.13;;;;;;;8.33;60.04;99156.13;5061629;28;20237;-65
2023/03/16 06:44:30;;;;;;;0.80;0.80;;;;;;;8.39;59.52;99158.13;5060263;28;20041;-64
2023/03/16 06:46:56;;;;;;;1.90;0.80;;;;;;;8.35;59.50;99162.06;5063060;28;20342;-69
2023/03/16 06:49:21;;;;;;;1.58;1.00;;;;;;;8.41;59.85;99163.25;5062684;28;20101;-65
2023/03/16 06:51:46;;;;;;;2.28;1.10;;;;;;;8.35;59.46;99162.06;5063562;28;20032;-69
2023/03/16 06:54:12;;;;;;;3.67;1.52;;;;;;;8.30;59.16;99159.84;5067097;28;20044;-65
2023/03/16 06:56:37;;;;;;;1.65;1.48;;;;;;;8.36;59.13;99168.19;5064016;28;20035;-69
2023/03/16 06:59:03;;;;;;;1.17;0.93;;;;;;;8.32;59.68;99163.19;5062310;28;20051;-65
2023/03/16 07:01:28;;;;;;;1.30;0.82;;;;;;;8.32;59.66;99170.25;5061957;28;20421;-69
2023/03/16 07:03:54;;;;;;;2.88;0.80;;;;;;;8.37;59.16;99175.09;5065347;28;20196;-65
2023/03/16 07:06:19;;;;;;;1.58;0.60;;;;;;;8.31;58.63;99176.50;5064944;28;20372;-68
2023/03/16 07:08:46;;;;;;;1.98;0.95;;;;;;;8.29;59.11;99189.84;5064666;28;20338;-65
2023/03/16 07:11:12;;;;;;;1.23;0.70;;;;;;;8.32;59.48;99189.56;5066008;28;20052;-70
2023/03/16 07:13:37;;;;;;;2.30;0.80;;;;;;;8.39;58.83;99189.78;5064506;28;20059;-66
2023/03/16 07:16:03;;;;;;;3.45;0.82;;;;;;;8.39;59.11;99183.69;5062890;28;20315;-69
2023/03/16 07:18:30;;;;;;;2.33;1.08;;;;;;;8.50;59.01;99199.19;5061405;28;20107;-68
2023/03/16 07:20:56;;;;;;;1.15;0.90;;;;;;;8.43;58.27;99187.66;5063171;28;20033;-70
2023/03/16 07:23:23;;;;;;;3.45;1.25;;;;;;;8.48;58.82;99194.09;5061992;28;20025;-65
2023/03/16 07:25:48;;;;;;;2.88;1.10;;;;;;;8.47;59.03;99196.88;5061933;28;20044;-65
2023/03/16 07:28:14;;;;;;;2.10;0.90;;;;;;;8.38;58.80;99206.59;5063398;28;20044;-69
2023/03/16 07:30:39;;;;;;;1.65;0.90;;;;;;;8.36;58.73;99208.56;5063281;28;20335;-65
2023/03/16 07:33:04;;;;;;;4.38;1.20;;;;;;;8.42;59.50;99215.84;5061833;28;20330;-65
2023/03/16 07:35:30;;;;;;;3.10;1.00;;;;;;;8.44;58.88;99215.69;5067713;28;20068;-69
2023/03/16 07:37:56;;;;;;;2.25;0.80;;;;;;;8.56;58.60;99211.75;5073156;28;20246;-65
2023/03/16 07:40:22;;;;;;;1.88;0.77;;;;;;;8.55;58.86;99210.09;5072343;28;20041;-69
2023/03/16 07:42:47;;;;;;;7.78;4.03;;;;;;;8.62;58.25;99211.94;5073941;28;20024;-69
2023/03/16 07:45:14;;;;;;;21.05;14.63;;;;;;;8.67;58.55;99210.59;5072672;28;20044;-65
2023/03/16 07:47:39;;;;;;;10.15;8.27;;;;;;;8.60;58.28;99213.06;5072217;28;20044;-64
2023/03/16 07:50:05;;;;;;;20.38;12.20;;;;;;;8.57;58.73;99206.31;5073419;28;20038;-64
2023/03/16 07:52:31;;;;;;;8.52;6.25;;;;;;;8.66;58.72;99216.88;5071840;28;20029;-69
2023/03/16 07:54:56;;;;;;;9.85;6.38;;;;;;;8.77;58.43;99213.94;5073082;28;20048;-65
2023/03/16 07:57:21;;;;;;;10.25;8.45;;;;;;;8.81;58.64;99223.16;5070277;28;20106;-69
2023/03/16 07:59:47;;;;;;;11.13;8.90;;;;;;;8.93;58.24;99224.50;5073929;28;20048;-66
2023/03/16 08:02:15;;;;;;;8.15;5.68;;;;;;;8.98;58.31;99222.19;5072021;28;20032;-70
2023/03/16 08:04:41;;;;;;;4.13;2.13;;;;;;;9.05;57.83;99227.63;5071667;28;20043;-70
2023/03/16 08:07:08;;;;;;;2.63;1.98;;;;;;;9.07;57.38;99237.03;5070720;28;20347;-69
2023/03/16 08:09:34;;;;;;;2.72;2.40;;;;;;;9.07;57.67;99237.03;5071451;28;20032;-69
2023/03/16 08:12:02;;;;;;;6.50;3.90;;;;;;;9.06;57.38;99239.84;5071317;28;20028;-65
2023/03/16 08:14:28;;;;;;;4.50;3.00;;;;;;;9.07;56.86;99246.78;5071257;28;20048;-70
2023/03/16 08:16:53;;;;;;;11.05;6.65;;;;;;;9.09;56.75;99243.00;5071937;28;20217;-65
2023/03/16 08:19:19;;;;;;;7.68;4.85;;;;;;;9.08;56.57;99243.16;5069231;28;20518;-69
2023/03/16 08:21:44;;;;;;;11.30;8.63;;;;;;;9.11;57.21;99246.28;5072702;28;20078;-65
2023/03/16 08:24:10;;;;;;;13.88;9.18;;;;;;;9.20;57.43;99247.13;5070424;28;20350;-69
2023/03/16 08:26:35;;;;;;;9.82;6.90;;;;;;;9.26;57.00;99249.09;5072467;28;20036;-69
2023/03/16 08:29:02;;;;;;;16.38;11.88;;;;;;;9.27;56.26;99248.09;5071033;28;20051;-69
2023/03/16 08:31:29;;;;;;;11.38;7.93;;;;;;;9.29;56.80;99254.88;5071159;28;20235;-65
2023/03/16 08:33:55;;;;;;;8.70;6.80;;;;;;;9.29;56.59;99261.97;5068931;28;20619;-69
2023/03/16 08:36:22;;;;;;;7.63;4.13;;;;;;;9.25;56.87;99258.00;5071492;28;20098;-65
2023/03/16 08:38:48;;;;;;;9.15;6.30;;;;;;;9.35;56.76;99265.78;5073248;28;20040;-69
2023/03/16 08:41:15;;;;;;;8.93;5.20;;;;;;;9.45;57.41;99255.88;5071844;28;20027;-65
2023/03/16 08:43:41;;;;;;;4.32;3.65;;;;;;;9.41;56.94;99271.25;5072438;28;20032;-65
2023/03/16 08:46:07;;;;;;;7.68;4.63;;;;;;;9.41;56.84;99267.78;5070227;28;20020;-65
2023/03/16 08:48:33;;;;;;;5.97;3.88;;;;;;;9.39;56.58;99275.06;5071915;28;20048;-70
2023/03/16 08:51:02;;;;;;;6.63;4.20;;;;;;;9.41;57.24;99265.13;5070300;28;20032;-65
2023/03/16 08:53:28;;;;;;;8.32;4.20;;;;;;;9.47;57.17;99259.19;5071185;28;20048;-65
2023/03/16 08:56:05;;;;;;;9.52;5.10;;;;;;;9.50;57.23;99259.69;5071343;28;20067;-69
2023/03/16 08:58:31;;;;;;;3.97;2.50;;;;;;;9.56;56.75;99258.19;5070116;28;20131;-69
2023/03/16 09:00:58;;;;;;;4.38;2.30;;;;;;;9.58;56.58;99266.78;5072171;28;20032;-65
2023/03/16 09:03:24;;;;;;;2.47;1.30;;;;;;;9.64;55.63;99262.63;5070280;28;20104;-69
2023/03/16 09:05:50;;;;;;;2.75;2.00;;;;;;;9.63;55.86;99255.69;5071761;28;20028;-65
2023/03/16 09:08:17;;;;;;;3.95;1.52;;;;;;;9.65;55.86;99259.00;5071058;28;20081;-70
2023/03/16 09:10:42;;;;;;;3.85;2.10;;;;;;;9.70;55.78;99254.84;5070138;28;20384;-62
2023/03/16 09:13:07;;;;;;;4.60;3.25;;;;;;;9.85;55.77;99258.47;5071812;28;20057;-66
2023/03/16 09:15:34;;;;;;;3.53;1.98;;;;;;;9.91;55.57;99264.88;5070273;28;20341;-67
2023/03/16 09:18:02;;;;;;;5.63;2.35;;;;;;;9.97;55.49;99266.84;5072332;28;20093;-67
2023/03/16 09:20:28;;;;;;;1.63;1.40;;;;;;;9.92;55.47;99255.97;5069510;28;20810;-62
2023/03/16 09:22:55;;;;;;;2.55;1.33;;;;;;;9.92;55.52;99255.97;5071282;28;20036;-67
2023/03/16 09:25:21;;;;;;;3.22;1.30;;;;;;;10.09;55.41;99260.22;5070620;28;20040;-63
2023/03/16 09:27:46;;;;;;;2.58;0.98;;;;;;;10.20;55.18;99262.50;5069754;28;20070;-67
2023/03/16 09:30:13;;;;;;;1.85;0.85;;;;;;;10.32;54.19;99262.97;5072832;28;20054;-67
2023/03/16 09:32:38;;;;;;;0.93;0.80;;;;;;;10.49;54.46;99272.50;5070781;28;20059;-67
2023/03/16 09:35:05;;;;;;;1.52;0.80;;;;;;;10.48;53.81;99270.84;5071811;28;20349;-63
2023/03/16 09:37:31;;;;;;;9.25;4.57;;;;;;;10.58;53.70;99272.47;5070004;28;20528;-67
2023/03/16 09:39:57;;;;;;;8.88;4.28;;;;;;;10.67;53.11;99279.38;5070819;28;20068;-67
2023/03/16 09:42:50;;;;;;;10.82;6.10;;;;;;;10.68;51.78;99273.91;5070164;28;20039;-68
2023/03/16 09:45:34;;;;;;;5.90;3.40;;;;;;;10.72;52.65;99271.72;5069108;28;20466;-63
2023/03/16 09:48:03;;;;;;;2.20;1.33;;;;;;;10.79;52.02;99270.84;5070128;28;20221;-68
2023/03/16 09:50:33;;;;;;;1.08;0.98;;;;;;;10.86;52.59;99277.09;5069166;28;20325;-63
2023/03/16 09:53:04;;;;;;;1.83;1.38;;;;;;;11.02;52.49;99270.03;5070272;28;20039;-67
2023/03/16 09:55:36;;;;;;;2.97;0.88;;;;;;;11.02;50.87;99272.69;5072233;28;20040;-67
2023/03/16 09:58:05;;;;;;;1.67;1.00;;;;;;;11.03;51.13;99277.00;5069807;28;20128;-68
2023/03/16 10:00:40;;;;;;;4.55;1.08;;;;;;;11.08;50.93;99270.16;5069909;28;20047;-67
2023/03/16 10:03:47;;;;;;;2.78;1.00;;;;;;;11.15;50.61;99273.75;5070210;28;20032;-63
2023/03/16 10:06:15;;;;;;;1.30;0.93;;;;;;;11.18;50.62;99283.16;5064976;28;20056;-63
2023/03/16 10:09:03;;;;;;;4.05;1.25;;;;;;;11.17;50.29;99284.16;5071274;28;20124;-67
2023/03/16 10:11:44;;;;;;;0.98;0.75;;;;;;;11.17;49.73;99281.53;5060351;28;20111;-62
2023/03/16 10:14:48;;;;;;;1.02;0.93;;;;;;;11.28;49.48;99281.09;5070068;28;20048;-68
2023/03/16 10:17:20;;;;;;;1.60;1.00;;;;;;;11.34;49.89;99275.09;5071103;28;20041;-67
2023/03/16 10:19:53;;;;;;;1.65;0.90;;;;;;;11.39;50.03;99274.56;5068177;28;20036;-67
2023/03/16 10:22:29;;;;;;;2.72;1.00;;;;;;;11.47;49.80;99274.53;5072910;28;20520;-63
2023/03/16 10:25:07;;;;;;;1.15;0.98;;;;;;;11.59;49.03;99272.25;5073583;28;20355;-67
2023/03/16 10:27:37;;;;;;;0.73;0.60;;;;;;;11.69;48.24;99267.53;5074105;28;20575;-63
2023/03/16 10:30:16;;;;;;;3.20;1.20;;;;;;;11.80;48.35;99270.59;5073063;28;20112;-63
2023/03/16 10:32:43;;;;;;;3.13;1.52;;;;;;;11.89;48.50;99271.31;5071066;28;20028;-63
2023/03/16 10:35:40;;;;;;;2.03;1.85;;;;;;;12.01;48.55;99277.81;5074564;28;20040;-70
2023/03/16 10:38:28;;;;;;;1.08;0.80;;;;;;;12.00;47.37;99268.22;5072893;28;20064;-63
2023/03/16 10:40:53;;;;;;;1.13;1.02;;;;;;;12.12;47.80;99269.41;5071458;28;20249;-70
2023/03/16 10:43:19;;;;;;;2.50;1.13;;;;;;;12.17;46.87;99266.19;5072782;28;20036;-66
2023/03/16 10:45:45;;;;;;;1.92;1.00;;;;;;;12.18;46.94;99267.03;5073033;28;20070;-66
2023/03/16 10:48:18;;;;;;;4.45;1.83;;;;;;;12.15;46.74;99263.72;5074381;28;20317;-70
2023/03/16 10:50:49;;;;;;;1.63;1.50;;;;;;;12.12;46.49;99268.59;5073745;28;20097;-66
2023/03/16 10:53:20;;;;;;;3.30;1.65;;;;;;;12.13;46.95;99262.28;5073559;28;20062;-63
2023/03/16 10:55:47;;;;;;;1.42;1.33;;;;;;;12.12;47.01;99263.28;5073697;28;20035;-69
2023/03/16 10:58:34;;;;;;;2.85;1.20;;;;;;;12.21;46.92;99264.00;5072657;28;20040;-65
2023/03/16 11:01:00;;;;;;;4.85;2.30;;;;;;;12.27;47.36;99257.97;5073732;28;20028;-66
2023/03/16 11:03:39;;;;;;;4.38;2.10;;;;;;;12.35;46.99;99269.31;5072679;28;20040;-66
2023/03/16 11:06:07;;;;;;;2.42;1.55;;;;;;;12.40;46.14;99258.13;5072102;28;20451;-70
2023/03/16 11:08:36;;;;;;;2.83;1.30;;;;;;;12.43;46.33;99268.38;5074969;28;20277;-65
2023/03/16 11:11:20;;;;;;;2.95;1.10;;;;;;;12.47;46.60;99256.38;5070412;28;20024;-70
2023/03/16 11:13:47;;;;;;;2.20;1.40;;;;;;;12.53;46.58;99252.19;5072587;28;20044;-70
2023/03/16 11:16:24;;;;;;;2.38;1.20;;;;;;;12.54;46.01;99262.63;5070559;28;20227;-66
2023/03/16 11:19:29;;;;;;;3.20;1.17;;;;;;;12.51;46.27;99246.22;5073559;28;20124;-65
2023/03/16 11:22:13;;;;;;;2.45;1.30;;;;;;;12.47;46.55;99259.84;5060473;28;20361;-66
2023/03/16 11:24:45;;;;;;;2.90;1.55;;;;;;;12.57;46.87;99258.78;5070202;28;20251;-70
2023/03/16 11:27:23;;;;;;;1.52;1.00;;;;;;;12.61;46.35;99255.56;5071650;28;20044;-66
2023/03/16 11:30:01;;;;;;;3.65;1.65;;;;;;;12.72;46.42;99252.41;5072543;28;20386;-71
2023/03/16 11:32:34;;;;;;;3.60;1.85;;;;;;;12.65;45.61;99250.69;5070977;28;20033;-70
2023/03/16 11:35:03;;;;;;;3.20;1.30;;;;;;;12.62;45.69;99251.88;5071083;28;20044;-70
2023/03/16 11:37:54;;;;;;;1.30;1.20;;;;;;;12.59;45.16;99254.91;5074160;28;20064;-70
2023/03/16 11:40:28;;;;;;;3.10;1.63;;;;;;;12.52;45.53;99253.19;5071719;28;20059;-65
2023/03/16 11:43:17;;;;;;;2.13;1.30;;;;;;;12.53;46.25;99252.19;5073269;28;20345;-66